Time;durP1;ratioP1;P1;durP2;ratioP2;P2;SDS_P1;SDS_P2;PMS_P1;PMS_P2;Temp;Humidity;BMP_temperature;BMP_pressure;BME280_temperature;BME280_humidity;BME280_pressure;Samples;Min_cycle;Max_cycle;Signal;HPM_P1;HPM_P2
2021/12/23 00:00:47;;;;;;;;;;;0.50;99.90;;;;;;5094933;28;20018;-78
2021/12/23 00:03:13;;;;;;;;;;;0.50;99.90;;;;;;5094774;28;19908;-78
2021/12/23 00:05:39;;;;;;;;;;;0.50;99.90;;;;;;5076304;28;20402;-77
2021/12/23 00:08:04;;;;;;;;;;;0.50;99.90;;;;;;5066711;28;20583;-78
2021/12/23 00:10:30;;;;;;;;;;;0.50;99.90;;;;;;5094465;28;19931;-78
2021/12/23 00:12:55;;;;;;;;;;;0.50;99.90;;;;;;5094657;28;19916;-79
2021/12/23 00:23:42;;;;;;;;;;;0.50;99.90;;;;;;5094155;28;20338;-78
2021/12/23 00:26:08;;;;;;;;;;;0.60;99.90;;;;;;5075687;28;19999;-78
2021/12/23 00:28:34;;;;;;;;;;;0.60;99.90;;;;;;5094361;28;19947;-78
2021/12/23 00:31:00;;;;;;;;;;;0.50;99.90;;;;;;5094299;28;19948;-77
2021/12/23 00:33:27;;;;;;;;;;;0.60;99.90;;;;;;5094096;28;19962;-79
2021/12/23 00:35:53;;;;;;;;;;;0.60;99.90;;;;;;5094005;28;19908;-79
2021/12/23 00:38:25;;;;;;;;;;;0.50;99.90;;;;;;5093420;28;20000;-78
2021/12/23 00:40:52;;;;;;;;;;;0.60;99.90;;;;;;5075770;28;19908;-78
2021/12/23 00:43:18;;;;;;;;;;;0.50;99.90;;;;;;5094076;28;19934;-79
2021/12/23 00:45:43;;;;;;;;;;;0.50;99.90;;;;;;5075504;28;19908;-77
2021/12/23 00:48:09;;;;;;;;;;;0.50;99.90;;;;;;5094041;28;19915;-78
2021/12/23 00:50:35;;;;;;;;;;;0.50;99.90;;;;;;5094000;28;19965;-78
2021/12/23 00:53:05;;;;;;;;;;;0.50;99.90;;;;;;5075564;28;20429;-79
2021/12/23 00:55:31;;;;;;;;;;;0.60;99.90;;;;;;5093663;28;19915;-77
2021/12/23 00:57:56;;;;;;;;;;;0.70;99.90;;;;;;5093756;28;20372;-77
2021/12/23 01:00:22;;;;;;;;;;;0.80;99.90;;;;;;5075718;28;19914;-78
2021/12/23 01:02:48;;;;;;;;;;;0.80;99.90;;;;;;5093753;28;19908;-78
2021/12/23 01:05:16;;;;;;;;;;;0.90;99.90;;;;;;5093492;28;19909;-78
2021/12/23 01:07:42;;;;;;;;;;;1.00;99.90;;;;;;5093548;28;20019;-79
2021/12/23 01:10:07;;;;;;;;;;;1.10;99.90;;;;;;5084559;28;20392;-78
2021/12/23 01:12:47;;;;;;;;;;;1.10;99.90;;;;;;5093522;28;19916;-78
2021/12/23 01:15:17;;;;;;;;;;;1.20;99.90;;;;;;5070460;28;19920;-78
2021/12/23 01:17:55;;;;;;;;;;;1.10;99.90;;;;;;5052056;28;19908;-79
2021/12/23 01:20:26;;;;;;;;;;;1.10;99.90;;;;;;5053399;28;19908;-77
2021/12/23 01:22:53;;;;;;;;;;;1.20;99.90;;;;;;5053039;28;19955;-79
2021/12/23 01:25:18;;;;;;;;;;;1.10;99.90;;;;;;5053009;28;19909;-77
2021/12/23 01:27:44;;;;;;;;;;;1.10;99.90;;;;;;5053165;28;20284;-79
2021/12/23 01:30:10;;;;;;;;;;;1.20;99.90;;;;;;5053274;28;20289;-79
2021/12/23 01:32:35;;;;;;;;;;;1.20;99.90;;;;;;5053085;28;20000;-77
2021/12/23 01:35:01;;;;;;;;;;;1.10;99.90;;;;;;5052920;28;19909;-77
2021/12/23 01:37:26;;;;;;;;;;;1.00;99.90;;;;;;5052641;28;19984;-78
2021/12/23 01:39:52;;;;;;;;;;;1.10;99.90;;;;;;5053151;28;19931;-78
2021/12/23 01:42:18;;;;;;;;;;;1.20;99.90;;;;;;5053159;28;20289;-78
2021/12/23 01:44:43;;;;;;;;;;;1.20;99.90;;;;;;5053079;28;19908;-77
2021/12/23 01:47:09;;;;;;;;;;;1.20;99.90;;;;;;5051290;28;19962;-79
2021/12/23 01:49:34;;;;;;;;;;;1.30;99.90;;;;;;5052994;28;19913;-78
2021/12/23 01:52:00;;;;;;;;;;;1.40;99.90;;;;;;5056894;28;19913;-79
2021/12/23 01:54:26;;;;;;;;;;;1.40;99.90;;;;;;5057026;28;19913;-77
2021/12/23 01:56:51;;;;;;;;;;;1.40;99.90;;;;;;5056844;28;19915;-77
2021/12/23 01:59:17;;;;;;;;;;;1.40;99.90;;;;;;5056990;28;19931;-77
2021/12/23 02:01:44;;;;;;;;;;;1.40;99.90;;;;;;5056846;28;19909;-79
2021/12/23 02:04:09;;;;;;;;;;;1.50;99.90;;;;;;5056943;28;19909;-79
2021/12/23 02:06:35;;;;;;;;;;;1.50;99.90;;;;;;5055002;28;19965;-79
2021/12/23 02:09:01;;;;;;;;;;;1.50;99.90;;;;;;5047743;28;19916;-79
2021/12/23 02:11:26;;;;;;;;;;;1.60;99.90;;;;;;5056653;28;19988;-78
2021/12/23 02:13:52;;;;;;;;;;;1.50;99.90;;;;;;5062272;28;19920;-79
2021/12/23 02:16:18;;;;;;;;;;;1.50;99.90;;;;;;5058410;28;19931;-77
2021/12/23 02:18:43;;;;;;;;;;;1.60;99.90;;;;;;5058572;28;19909;-78
2021/12/23 02:21:09;;;;;;;;;;;1.60;99.90;;;;;;5076488;28;19948;-78
2021/12/23 02:23:35;;;;;;;;;;;1.50;99.90;;;;;;5076175;28;19912;-78
2021/12/23 02:26:00;;;;;;;;;;;1.50;99.90;;;;;;5076120;28;19909;-78
2021/12/23 02:28:27;;;;;;;;;;;1.50;99.90;;;;;;5076519;28;19908;-77
2021/12/23 02:30:52;;;;;;;;;;;1.50;99.90;;;;;;5076286;28;20372;-78
2021/12/23 02:33:23;;;;;;;;;;;1.50;99.90;;;;;;5076152;28;19919;-78
2021/12/23 02:35:48;;;;;;;;;;;1.50;99.90;;;;;;5075855;28;19923;-79
2021/12/23 02:38:14;;;;;;;;;;;1.40;99.90;;;;;;5076004;28;19909;-77
2021/12/23 02:40:41;;;;;;;;;;;1.50;99.90;;;;;;5076130;28;20413;-78
2021/12/23 02:43:08;;;;;;;;;;;1.50;99.90;;;;;;5076154;28;19908;-79
2021/12/23 02:45:34;;;;;;;;;;;1.50;99.90;;;;;;5077191;28;19909;-78
2021/12/23 02:47:59;;;;;;;;;;;1.50;99.90;;;;;;5096268;28;19991;-79
2021/12/23 02:50:25;;;;;;;;;;;1.50;99.90;;;;;;5096388;28;19912;-79
2021/12/23 02:52:51;;;;;;;;;;;1.40;99.90;;;;;;5095997;28;20277;-77
2021/12/23 02:55:19;;;;;;;;;;;1.40;99.90;;;;;;5096220;28;19908;-79
2021/12/23 02:57:45;;;;;;;;;;;1.50;99.90;;;;;;5095504;28;19951;-78
2021/12/23 03:00:11;;;;;;;;;;;1.60;99.90;;;;;;5096006;28;19908;-78
2021/12/23 03:02:38;;;;;;;;;;;1.70;99.90;;;;;;5095061;28;19995;-77
2021/12/23 03:05:04;;;;;;;;;;;1.70;99.90;;;;;;5077721;28;19915;-77
2021/12/23 03:07:30;;;;;;;;;;;1.80;99.90;;;;;;5078472;28;19909;-78
2021/12/23 03:09:55;;;;;;;;;;;1.80;99.90;;;;;;5075463;28;20279;-79
2021/12/23 03:12:21;;;;;;;;;;;1.80;99.90;;;;;;5057589;28;19927;-78
2021/12/23 03:14:47;;;;;;;;;;;1.90;99.90;;;;;;5057315;28;20373;-79
2021/12/23 03:17:12;;;;;;;;;;;1.90;99.90;;;;;;5057015;28;19916;-79
2021/12/23 03:19:39;;;;;;;;;;;1.90;99.90;;;;;;5075498;28;20026;-78
2021/12/23 03:22:04;;;;;;;;;;;1.90;99.90;;;;;;5075169;28;19909;-78
2021/12/23 03:24:30;;;;;;;;;;;2.00;99.90;;;;;;5075508;28;19909;-77
2021/12/23 03:26:56;;;;;;;;;;;1.90;99.90;;;;;;5074888;28;19919;-78
2021/12/23 03:29:21;;;;;;;;;;;1.90;99.90;;;;;;5057316;28;19974;-78
2021/12/23 03:31:47;;;;;;;;;;;1.90;99.90;;;;;;5075269;28;19996;-78
2021/12/23 03:34:12;;;;;;;;;;;1.90;99.90;;;;;;5074841;28;20003;-78
2021/12/23 03:36:38;;;;;;;;;;;1.90;99.90;;;;;;5074629;28;19908;-79
2021/12/23 03:39:04;;;;;;;;;;;2.00;99.90;;;;;;5074887;28;19909;-79
2021/12/23 03:41:30;;;;;;;;;;;2.00;99.90;;;;;;5074930;28;19908;-80
2021/12/23 03:43:55;;;;;;;;;;;1.90;99.90;;;;;;5074924;28;19952;-80
2021/12/23 03:46:21;;;;;;;;;;;1.90;99.90;;;;;;5056438;28;19963;-78
2021/12/23 03:48:47;;;;;;;;;;;1.90;99.90;;;;;;5074901;28;20003;-78
2021/12/23 03:51:12;;;;;;;;;;;1.90;99.90;;;;;;5074802;28;20337;-78
2021/12/23 03:53:38;;;;;;;;;;;1.80;99.90;;;;;;5074467;28;19913;-78
2021/12/23 03:56:03;;;;;;;;;;;1.90;99.90;;;;;;5077677;28;19908;-77
2021/12/23 03:58:29;;;;;;;;;;;1.90;99.90;;;;;;5094737;28;19908;-79
2021/12/23 04:00:55;;;;;;;;;;;1.90;99.90;;;;;;5094932;28;19919;-78
2021/12/23 04:03:20;;;;;;;;;;;1.90;99.90;;;;;;5094806;28;19973;-77
2021/12/23 04:05:46;;;;;;;;;;;1.90;99.90;;;;;;5094581;28;19999;-79
2021/12/23 04:08:11;;;;;;;;;;;1.90;99.90;;;;;;5073818;28;19916;-78
2021/12/23 04:10:37;;;;;;;;;;;2.10;99.90;;;;;;5094466;28;19908;-79
2021/12/23 04:13:03;;;;;;;;;;;2.00;99.90;;;;;;5076327;28;19912;-78
2021/12/23 04:15:28;;;;;;;;;;;2.00;99.90;;;;;;5094171;28;20396;-78
2021/12/23 04:17:54;;;;;;;;;;;2.10;99.90;;;;;;5094103;28;19908;-80
2021/12/23 04:20:22;;;;;;;;;;;2.10;99.90;;;;;;5094489;28;19916;-79
2021/12/23 04:22:49;;;;;;;;;;;2.10;99.90;;;;;;5076145;28;19914;-78
2021/12/23 04:25:15;;;;;;;;;;;2.20;99.90;;;;;;5094412;28;19912;-79
2021/12/23 04:27:42;;;;;;;;;;;2.20;99.90;;;;;;5094073;28;19908;-79
2021/12/23 04:30:09;;;;;;;;;;;2.20;99.90;;;;;;5094391;28;20360;-77
2021/12/23 04:32:34;;;;;;;;;;;2.20;99.90;;;;;;5094085;28;19912;-80
2021/12/23 04:35:00;;;;;;;;;;;2.20;99.90;;;;;;5094020;28;19914;-78
2021/12/23 04:37:25;;;;;;;;;;;2.30;99.90;;;;;;5093704;28;20002;-78
2021/12/23 04:39:51;;;;;;;;;;;2.20;99.90;;;;;;5075821;28;19908;-79
2021/12/23 04:42:17;;;;;;;;;;;2.20;99.90;;;;;;5094193;28;19908;-80
2021/12/23 04:44:42;;;;;;;;;;;2.30;99.90;;;;;;5094047;28;19912;-78
2021/12/23 04:47:08;;;;;;;;;;;2.30;99.90;;;;;;5093569;28;19915;-78
2021/12/23 04:49:33;;;;;;;;;;;2.30;99.90;;;;;;5093964;28;19992;-77
2021/12/23 04:51:59;;;;;;;;;;;2.30;99.90;;;;;;5075627;28;19908;-77
2021/12/23 04:54:25;;;;;;;;;;;2.20;99.90;;;;;;5075635;28;19916;-79
2021/12/23 04:56:50;;;;;;;;;;;2.20;99.90;;;;;;5085648;28;19916;-78
2021/12/23 04:59:17;;;;;;;;;;;2.30;99.90;;;;;;5055663;28;19908;-78
2021/12/23 05:01:42;;;;;;;;;;;2.30;99.90;;;;;;5073576;28;19952;-77
2021/12/23 05:04:08;;;;;;;;;;;2.30;99.90;;;;;;5055618;28;19954;-78
2021/12/23 05:06:33;;;;;;;;;;;2.30;99.90;;;;;;5041425;28;19912;-78
2021/12/23 05:08:59;;;;;;;;;;;2.40;99.90;;;;;;5093403;28;20347;-79
2021/12/23 05:11:25;;;;;;;;;;;2.30;99.90;;;;;;5093525;28;19931;-78
2021/12/23 05:13:50;;;;;;;;;;;2.30;99.90;;;;;;5093427;28;20299;-80
2021/12/23 05:16:16;;;;;;;;;;;2.30;99.90;;;;;;5075019;28;19954;-77
2021/12/23 05:18:42;;;;;;;;;;;2.30;99.90;;;;;;5093576;28;19908;-78
2021/12/23 05:21:08;;;;;;;;;;;2.30;99.90;;;;;;5093502;28;19915;-79
2021/12/23 05:23:33;;;;;;;;;;;2.30;99.90;;;;;;5093257;28;19908;-79
2021/12/23 05:25:59;;;;;;;;;;;2.40;99.90;;;;;;5093065;28;19942;-77
2021/12/23 05:28:25;;;;;;;;;;;2.40;99.90;;;;;;5093445;28;20280;-77
2021/12/23 05:30:50;;;;;;;;;;;2.40;99.90;;;;;;5093467;28;19908;-79
2021/12/23 05:33:16;;;;;;;;;;;2.40;99.90;;;;;;5093288;28;20008;-77
2021/12/23 05:35:42;;;;;;;;;;;2.50;99.90;;;;;;5093410;28;19908;-78
2021/12/23 05:38:08;;;;;;;;;;;2.50;99.90;;;;;;5092924;28;19908;-77
2021/12/23 05:40:35;;;;;;;;;;;2.50;99.90;;;;;;5093428;28;19991;-78
2021/12/23 05:43:01;;;;;;;;;;;2.50;99.90;;;;;;5093339;28;19943;-80
2021/12/23 05:45:26;;;;;;;;;;;2.50;99.90;;;;;;5093180;28;19950;-78
2021/12/23 05:47:52;;;;;;;;;;;2.50;99.90;;;;;;5092907;28;19908;-79
2021/12/23 05:50:19;;;;;;;;;;;2.50;99.90;;;;;;5093293;28;19908;-77
2021/12/23 05:52:44;;;;;;;;;;;2.50;99.90;;;;;;5093033;28;19938;-77
2021/12/23 05:55:11;;;;;;;;;;;2.40;99.90;;;;;;5093282;28;19912;-78
2021/12/23 05:57:37;;;;;;;;;;;2.40;99.90;;;;;;5092738;28;20303;-78
2021/12/23 06:00:05;;;;;;;;;;;2.50;99.90;;;;;;5093063;28;20003;-78
2021/12/23 06:02:31;;;;;;;;;;;2.40;99.90;;;;;;5093088;28;19908;-79
2021/12/23 06:04:56;;;;;;;;;;;2.50;99.90;;;;;;5093121;28;19908;-77
2021/12/23 06:07:22;;;;;;;;;;;2.60;99.90;;;;;;5055168;28;20323;-78
2021/12/23 06:09:47;;;;;;;;;;;2.60;99.90;;;;;;5092980;28;19997;-78
2021/12/23 06:12:13;;;;;;;;;;;2.60;99.90;;;;;;5093127;28;19916;-79
2021/12/23 06:14:38;;;;;;;;;;;2.70;99.90;;;;;;5092797;28;19920;-80
2021/12/23 06:17:04;;;;;;;;;;;2.70;99.90;;;;;;5092725;28;20433;-78
2021/12/23 06:19:30;;;;;;;;;;;2.80;99.90;;;;;;5093150;28;19915;-78
2021/12/23 06:21:56;;;;;;;;;;;2.80;99.90;;;;;;5092821;28;20009;-77
2021/12/23 06:24:21;;;;;;;;;;;2.80;99.90;;;;;;5074887;28;19995;-78
2021/12/23 06:26:47;;;;;;;;;;;2.70;99.90;;;;;;5088258;28;19916;-78
2021/12/23 06:29:12;;;;;;;;;;;2.80;99.90;;;;;;5072815;28;19944;-78
2021/12/23 06:31:38;;;;;;;;;;;2.80;99.90;;;;;;5072673;28;19909;-79
2021/12/23 06:34:03;;;;;;;;;;;2.80;99.90;;;;;;5072419;28;19995;-78
2021/12/23 06:36:29;;;;;;;;;;;2.90;99.90;;;;;;5074343;28;19954;-80
2021/12/23 06:38:56;;;;;;;;;;;2.90;99.90;;;;;;5096123;28;20487;-79
2021/12/23 06:41:22;;;;;;;;;;;2.80;99.90;;;;;;5096482;28;19962;-79
2021/12/23 06:43:47;;;;;;;;;;;2.80;99.90;;;;;;5096372;28;19908;-78
2021/12/23 06:46:13;;;;;;;;;;;2.90;99.90;;;;;;5096176;28;19908;-79
2021/12/23 06:48:39;;;;;;;;;;;2.90;99.90;;;;;;5077614;28;20007;-80
2021/12/23 06:51:04;;;;;;;;;;;3.00;99.90;;;;;;5096247;28;19908;-78
2021/12/23 06:53:31;;;;;;;;;;;3.10;99.90;;;;;;5095928;28;19916;-77
2021/12/23 06:55:56;;;;;;;;;;;3.10;99.90;;;;;;5096146;28;19912;-78
2021/12/23 06:58:23;;;;;;;;;;;3.10;99.90;;;;;;5078889;28;20408;-78
2021/12/23 07:00:49;;;;;;;;;;;3.10;99.90;;;;;;5057799;28;20323;-79
2021/12/23 07:03:15;;;;;;;;;;;3.10;99.90;;;;;;5075842;28;19915;-78
2021/12/23 07:05:40;;;;;;;;;;;3.10;99.90;;;;;;5075782;28;19908;-78
2021/12/23 07:08:11;;;;;;;;;;;3.10;99.90;;;;;;5070354;28;19916;-77
2021/12/23 07:10:37;;;;;;;;;;;3.20;99.90;;;;;;5095686;28;19908;-79
2021/12/23 07:13:02;;;;;;;;;;;3.20;99.90;;;;;;5077640;28;19912;-79
2021/12/23 07:15:28;;;;;;;;;;;3.20;99.90;;;;;;5077206;28;19943;-77
2021/12/23 07:17:55;;;;;;;;;;;3.20;99.90;;;;;;5095262;28;19946;-79
2021/12/23 07:20:21;;;;;;;;;;;3.20;99.90;;;;;;5095679;28;19908;-79
2021/12/23 07:22:47;;;;;;;;;;;3.20;99.90;;;;;;5094026;28;19916;-79
2021/12/23 07:25:13;;;;;;;;;;;3.30;99.90;;;;;;5095620;28;19912;-77
2021/12/23 07:27:39;;;;;;;;;;;3.30;99.90;;;;;;5095321;28;19916;-77
2021/12/23 07:30:05;;;;;;;;;;;3.30;99.90;;;;;;5095506;28;19913;-79
2021/12/23 07:32:31;;;;;;;;;;;3.30;99.90;;;;;;5095310;28;20372;-78
2021/12/23 07:34:56;;;;;;;;;;;3.40;99.90;;;;;;5076872;28;19999;-79
2021/12/23 07:37:22;;;;;;;;;;;3.40;99.90;;;;;;5095054;28;20380;-78
2021/12/23 07:39:48;;;;;;;;;;;3.40;99.90;;;;;;5095335;28;19908;-80
2021/12/23 07:42:15;;;;;;;;;;;3.40;99.90;;;;;;5095167;28;19912;-80
2021/12/23 07:44:41;;;;;;;;;;;3.50;99.90;;;;;;5095242;28;20422;-78
2021/12/23 07:47:08;;;;;;;;;;;3.50;99.90;;;;;;5093491;28;19908;-77
2021/12/23 07:49:33;;;;;;;;;;;3.60;99.90;;;;;;5094805;28;19908;-79
2021/12/23 07:51:59;;;;;;;;;;;3.60;99.90;;;;;;5095034;28;19915;-77
2021/12/23 07:54:24;;;;;;;;;;;3.60;99.90;;;;;;5094967;28;20353;-78
2021/12/23 07:56:50;;;;;;;;;;;3.70;99.90;;;;;;5094803;28;19916;-78
2021/12/23 07:59:16;;;;;;;;;;;3.80;99.90;;;;;;5076740;28;20212;-77
2021/12/23 08:01:41;;;;;;;;;;;3.90;99.90;;;;;;5095115;28;19947;-79
2021/12/23 08:04:07;;;;;;;;;;;3.90;99.90;;;;;;5094804;28;19908;-80
2021/12/23 08:06:33;;;;;;;;;;;4.00;99.90;;;;;;5095167;28;19956;-78
2021/12/23 08:08:59;;;;;;;;;;;4.00;99.90;;;;;;5075295;28;20269;-80
2021/12/23 08:11:25;;;;;;;;;;;4.00;99.90;;;;;;5076596;28;19938;-79
2021/12/23 08:13:50;;;;;;;;;;;4.10;99.90;;;;;;5094355;28;19920;-77
2021/12/23 08:16:16;;;;;;;;;;;4.10;99.90;;;;;;5094630;28;20316;-78
2021/12/23 08:18:43;;;;;;;;;;;4.20;99.90;;;;;;5094190;28;19931;-78
2021/12/23 08:21:08;;;;;;;;;;;4.30;99.90;;;;;;5094416;28;20326;-79
2021/12/23 08:23:34;;;;;;;;;;;4.30;99.90;;;;;;5094116;28;19909;-79
2021/12/23 08:26:03;;;;;;;;;;;4.40;99.90;;;;;;5094444;28;19950;-77
2021/12/23 08:28:29;;;;;;;;;;;4.40;99.90;;;;;;5093902;28;19911;-78
2021/12/23 08:30:54;;;;;;;;;;;4.50;99.90;;;;;;5094412;28;19908;-78
2021/12/23 08:33:20;;;;;;;;;;;4.50;99.90;;;;;;5094104;28;19919;-78
2021/12/23 08:35:46;;;;;;;;;;;4.50;99.90;;;;;;5094339;28;20023;-78
2021/12/23 08:38:12;;;;;;;;;;;4.50;99.90;;;;;;5093749;28;20376;-78
2021/12/23 08:40:37;;;;;;;;;;;4.60;99.90;;;;;;5094096;28;20001;-78
2021/12/23 08:43:03;;;;;;;;;;;4.60;99.90;;;;;;5075964;28;19994;-80
2021/12/23 08:45:30;;;;;;;;;;;4.40;99.90;;;;;;5075702;28;19912;-79
2021/12/23 08:47:56;;;;;;;;;;;4.60;99.90;;;;;;5093861;28;19912;-79
2021/12/23 08:50:24;;;;;;;;;;;4.60;99.90;;;;;;5093972;28;19914;-79
2021/12/23 08:52:50;;;;;;;;;;;4.70;99.90;;;;;;5093809;28;19927;-79
2021/12/23 08:55:15;;;;;;;;;;;4.70;99.90;;;;;;5093838;28;19912;-80
2021/12/23 08:57:41;;;;;;;;;;;4.70;99.90;;;;;;5093499;28;19908;-80
2021/12/23 09:00:09;;;;;;;;;;;4.80;99.90;;;;;;5074947;28;20371;-79
2021/12/23 09:02:35;;;;;;;;;;;4.90;99.90;;;;;;5093541;28;19986;-80
2021/12/23 09:05:01;;;;;;;;;;;4.90;99.90;;;;;;5093870;28;19912;-78
2021/12/23 09:07:26;;;;;;;;;;;4.90;99.90;;;;;;5075201;28;19908;-78
2021/12/23 09:09:52;;;;;;;;;;;5.00;99.90;;;;;;5073966;28;19916;-79
2021/12/23 09:12:21;;;;;;;;;;;5.10;99.90;;;;;;5093554;28;19908;-80
2021/12/23 09:14:47;;;;;;;;;;;5.10;99.90;;;;;;5093388;28;19920;-78
2021/12/23 09:17:12;;;;;;;;;;;5.20;99.90;;;;;;5093372;28;19969;-78
2021/12/23 09:19:42;;;;;;;;;;;5.30;99.90;;;;;;5093538;28;19908;-77
2021/12/23 09:22:09;;;;;;;;;;;5.40;99.90;;;;;;5093323;28;19931;-78
2021/12/23 09:24:35;;;;;;;;;;;5.50;99.90;;;;;;5093436;28;19909;-79
2021/12/23 09:27:32;;;;;;;;;;;5.50;99.90;;;;;;5093424;28;19908;-79
2021/12/23 09:34:59;;;;;;;;;;;5.60;99.90;;;;;;5093138;28;20613;-78
2021/12/23 09:37:26;;;;;;;;;;;5.70;99.90;;;;;;5093169;28;19912;-78
2021/12/23 09:39:54;;;;;;;;;;;5.90;99.90;;;;;;5075170;28;20295;-78
2021/12/23 09:42:24;;;;;;;;;;;6.10;99.90;;;;;;5093343;28;20280;-78
2021/12/23 09:44:50;;;;;;;;;;;6.20;99.90;;;;;;5075156;28;19908;-77
2021/12/23 09:47:16;;;;;;;;;;;6.40;99.90;;;;;;5090691;28;19919;-77
2021/12/23 09:49:45;;;;;;;;;;;6.50;99.90;;;;;;5073040;28;19991;-79
2021/12/23 09:52:11;;;;;;;;;;;6.60;99.90;;;;;;5072985;28;20358;-80
2021/12/23 09:54:40;;;;;;;;;;;6.70;99.90;;;;;;5072985;28;19917;-80
2021/12/23 09:57:06;;;;;;;;;;;6.70;99.90;;;;;;5072877;28;19920;-78
2021/12/23 09:59:32;;;;;;;;;;;6.80;99.90;;;;;;5072980;28;19915;-77
2021/12/23 10:01:58;;;;;;;;;;;6.80;99.90;;;;;;5072997;28;19947;-79
2021/12/23 10:04:24;;;;;;;;;;;6.80;99.90;;;;;;5072978;28;19951;-79
2021/12/23 10:06:51;;;;;;;;;;;6.80;99.90;;;;;;5073150;28;20268;-79
2021/12/23 10:09:32;;;;;;;;;;;6.90;99.90;;;;;;5053266;28;19916;-77
2021/12/23 10:31:37;;;;;;;;;;;7.50;99.90;;;;;;5076275;28;19923;-78
2021/12/23 10:37:19;;;;;;;;;;;7.90;99.90;;;;;;5076263;28;20391;-78
2021/12/23 10:39:51;;;;;;;;;;;8.10;99.90;;;;;;5057993;28;20266;-80
2021/12/23 10:42:18;;;;;;;;;;;8.20;99.90;;;;;;5076289;28;19908;-79
2021/12/23 10:44:48;;;;;;;;;;;8.20;99.90;;;;;;5076365;28;19916;-79
2021/12/23 10:47:37;;;;;;;;;;;8.30;99.90;;;;;;5076097;28;19916;-80
2021/12/23 10:50:19;;;;;;;;;;;8.50;99.90;;;;;;5076000;28;19931;-78
2021/12/23 10:52:52;;;;;;;;;;;8.50;99.90;;;;;;5075723;28;19962;-78
2021/12/23 10:58:09;;;;;;;;;;;8.60;99.90;;;;;;5075460;28;19909;-78
2021/12/23 11:00:37;;;;;;;;;;;8.70;99.90;;;;;;5057693;28;20387;-78
2021/12/23 11:03:07;;;;;;;;;;;8.70;99.90;;;;;;5057810;28;19909;-78
2021/12/23 11:05:38;;;;;;;;;;;8.80;99.90;;;;;;5083922;28;19908;-80
2021/12/23 11:08:35;;;;;;;;;;;8.90;99.90;;;;;;5095617;28;19908;-79
2021/12/23 11:27:38;;;;;;;;;;;9.90;99.90;;;;;;5095594;28;19915;-79
2021/12/23 11:38:35;;;;;;;;;;;9.80;99.90;;;;;;5088034;28;19958;-80
2021/12/23 11:41:07;;;;;;;;;;;9.80;99.90;;;;;;5074987;28;19932;-79
2021/12/23 11:43:48;;;;;;;;;;;9.60;99.90;;;;;;5075137;28;19991;-78
2021/12/23 11:46:23;;;;;;;;;;;9.60;99.90;;;;;;5074889;28;19909;-79
2021/12/23 11:48:55;;;;;;;;;;;9.60;99.90;;;;;;5074557;28;19995;-77
2021/12/23 11:51:32;;;;;;;;;;;9.80;99.90;;;;;;5056716;28;19908;-79
2021/12/23 11:53:58;;;;;;;;;;;10.00;99.90;;;;;;5074476;28;20281;-79
2021/12/23 11:56:25;;;;;;;;;;;10.10;99.90;;;;;;5056788;28;19916;-79
2021/12/23 11:58:51;;;;;;;;;;;10.00;99.90;;;;;;5074223;28;20369;-80
2021/12/23 12:01:21;;;;;;;;;;;10.00;99.90;;;;;;5074660;28;19913;-78
2021/12/23 12:03:55;;;;;;;;;;;10.00;99.90;;;;;;5074671;28;20404;-82
2021/12/23 12:06:39;;;;;;;;;;;10.00;99.90;;;;;;5074648;28;19957;-79
2021/12/23 12:09:13;;;;;;;;;;;9.90;99.90;;;;;;5056009;28;20256;-78
2021/12/23 12:11:39;;;;;;;;;;;10.10;99.90;;;;;;5055439;28;20297;-79
2021/12/23 12:14:25;;;;;;;;;;;10.10;99.90;;;;;;5074059;28;19920;-79
2021/12/23 12:16:50;;;;;;;;;;;10.20;99.90;;;;;;5074271;28;20253;-80
2021/12/23 12:19:16;;;;;;;;;;;10.30;99.90;;;;;;5088257;28;19995;-78
2021/12/23 12:21:42;;;;;;;;;;;10.30;99.90;;;;;;5094551;28;19908;-78
2021/12/23 12:24:07;;;;;;;;;;;10.30;99.90;;;;;;5094135;28;20364;-78
2021/12/23 12:26:35;;;;;;;;;;;10.30;99.90;;;;;;5094469;28;19909;-80
2021/12/23 12:29:04;;;;;;;;;;;10.20;99.90;;;;;;5093974;28;19962;-78
2021/12/23 12:31:38;;;;;;;;;;;10.20;99.90;;;;;;5094401;28;19954;-80
2021/12/23 12:34:08;;;;;;;;;;;10.40;99.90;;;;;;5075758;28;19912;-80
2021/12/23 12:36:39;;;;;;;;;;;10.60;99.90;;;;;;5076070;28;19908;-79
2021/12/23 12:39:08;;;;;;;;;;;10.70;99.90;;;;;;5093714;28;19908;-80
2021/12/23 12:41:34;;;;;;;;;;;10.80;99.90;;;;;;5075921;28;20333;-81
2021/12/23 12:44:12;;;;;;;;;;;10.90;99.90;;;;;;5094139;28;19973;-79
2021/12/23 12:46:44;;;;;;;;;;;10.80;99.90;;;;;;5094216;28;19977;-80
2021/12/23 12:49:15;;;;;;;;;;;10.80;99.90;;;;;;5075252;28;19934;-78
2021/12/23 12:51:42;;;;;;;;;;;10.80;99.90;;;;;;5094150;28;19999;-78
2021/12/23 12:54:09;;;;;;;;;;;10.80;99.90;;;;;;5093654;28;19912;-82
2021/12/23 12:56:37;;;;;;;;;;;10.90;99.90;;;;;;5093916;28;19930;-81
2021/12/23 12:59:06;;;;;;;;;;;10.80;99.90;;;;;;5093603;28;19915;-79
2021/12/23 13:01:33;;;;;;;;;;;10.80;99.90;;;;;;5093761;28;20307;-79
2021/12/23 13:04:00;;;;;;;;;;;10.90;99.90;;;;;;5093788;28;19947;-82
2021/12/23 13:06:41;;;;;;;;;;;11.00;99.90;;;;;;5093638;28;19912;-80
2021/12/23 13:09:11;;;;;;;;;;;11.00;99.90;;;;;;5093116;28;20356;-80
2021/12/23 13:11:41;;;;;;;;;;;10.90;99.90;;;;;;5056026;28;19916;-80
2021/12/23 13:14:13;;;;;;;;;;;10.80;99.90;;;;;;5093479;28;19924;-80
2021/12/23 13:16:58;;;;;;;;;;;10.90;99.90;;;;;;5093687;28;19908;-78
2021/12/23 13:19:34;;;;;;;;;;;10.80;99.90;;;;;;5092154;28;21330;-79
2021/12/23 13:22:03;;;;;;;;;;;10.80;99.90;;;;;;5093352;28;19908;-79
2021/12/23 13:24:35;;;;;;;;;;;10.90;99.90;;;;;;5093539;28;19909;-80
2021/12/23 13:27:01;;;;;;;;;;;10.80;99.90;;;;;;5093663;28;19908;-79
2021/12/23 13:29:29;;;;;;;;;;;10.80;99.90;;;;;;5092956;28;20002;-79
2021/12/23 13:31:56;;;;;;;;;;;10.80;99.90;;;;;;5093409;28;19962;-78
2021/12/23 13:34:23;;;;;;;;;;;10.90;99.90;;;;;;5093039;28;19946;-81
2021/12/23 13:36:50;;;;;;;;;;;10.80;99.90;;;;;;5093483;28;19999;-78
2021/12/23 13:39:23;;;;;;;;;;;10.80;99.90;;;;;;5092845;28;19934;-78
2021/12/23 13:41:53;;;;;;;;;;;10.90;99.90;;;;;;5093418;28;19908;-79
2021/12/23 13:44:19;;;;;;;;;;;10.80;99.90;;;;;;5075169;28;20344;-80
2021/12/23 13:46:55;;;;;;;;;;;11.00;99.90;;;;;;5076860;28;19908;-79
2021/12/23 13:49:41;;;;;;;;;;;11.10;99.90;;;;;;5097039;28;19908;-78
2021/12/23 13:52:08;;;;;;;;;;;11.20;99.90;;;;;;5096769;28;19915;-80
2021/12/23 13:54:38;;;;;;;;;;;11.20;99.90;;;;;;5097292;28;19912;-81
2021/12/23 13:57:08;;;;;;;;;;;11.30;99.90;;;;;;5097428;28;19908;-78
2021/12/23 13:59:33;;;;;;;;;;;11.20;99.90;;;;;;5083026;28;19923;-81
2021/12/23 14:02:02;;;;;;;;;;;11.20;99.90;;;;;;5077021;28;19909;-81
2021/12/23 14:04:28;;;;;;;;;;;11.30;99.90;;;;;;5076927;28;19916;-79
2021/12/23 14:06:53;;;;;;;;;;;11.30;99.90;;;;;;5076883;28;19909;-78
2021/12/23 14:09:28;;;;;;;;;;;11.30;99.90;;;;;;5088024;28;19915;-81
2021/12/23 14:11:53;;;;;;;;;;;11.30;99.90;;;;;;5077862;28;19920;-80
2021/12/23 14:14:19;;;;;;;;;;;11.30;99.90;;;;;;5096795;28;19973;-80
2021/12/23 14:16:45;;;;;;;;;;;11.30;99.90;;;;;;5078857;28;19919;-80
2021/12/23 14:19:22;;;;;;;;;;;11.20;99.90;;;;;;5078376;28;19912;-79
2021/12/23 14:24:32;;;;;;;;;;;11.20;99.90;;;;;;5096904;28;19918;-80
2021/12/23 14:26:58;;;;;;;;;;;11.10;99.90;;;;;;5078573;28;20295;-79
2021/12/23 14:29:30;;;;;;;;;;;11.10;99.90;;;;;;5096329;28;19912;-80
2021/12/23 14:31:55;;;;;;;;;;;11.10;99.90;;;;;;5096745;28;20285;-78
2021/12/23 14:34:27;;;;;;;;;;;11.10;99.90;;;;;;5096633;28;19916;-79
2021/12/23 14:36:56;;;;;;;;;;;11.10;99.90;;;;;;5096657;28;20369;-82
2021/12/23 14:39:22;;;;;;;;;;;11.10;99.90;;;;;;5096194;28;19908;-81
2021/12/23 14:41:49;;;;;;;;;;;11.00;99.90;;;;;;5078349;28;20340;-80
2021/12/23 14:44:21;;;;;;;;;;;11.10;99.90;;;;;;5096481;28;19908;-79
2021/12/23 14:46:56;;;;;;;;;;;11.10;99.90;;;;;;5096062;28;19915;-79
2021/12/23 14:49:55;;;;;;;;;;;11.20;99.90;;;;;;5095951;28;19961;-80
2021/12/23 14:52:29;;;;;;;;;;;11.20;99.90;;;;;;5077851;28;20292;-79
2021/12/23 14:54:56;;;;;;;;;;;11.20;99.90;;;;;;5096342;28;19916;-78
2021/12/23 14:57:24;;;;;;;;;;;11.20;99.90;;;;;;5095033;28;19908;-78
2021/12/23 14:59:51;;;;;;;;;;;11.20;99.90;;;;;;5077171;28;19950;-80
2021/12/23 15:02:19;;;;;;;;;;;11.10;99.90;;;;;;5096205;28;19912;-78
2021/12/23 15:04:58;;;;;;;;;;;11.00;99.90;;;;;;5096046;28;19999;-79
2021/12/23 15:07:25;;;;;;;;;;;11.10;99.90;;;;;;5095955;28;19916;-81
2021/12/23 15:09:57;;;;;;;;;;;11.20;99.90;;;;;;5077198;28;19955;-79
2021/12/23 15:12:25;;;;;;;;;;;11.10;99.90;;;;;;5076680;28;19961;-78
2021/12/23 15:14:54;;;;;;;;;;;11.20;99.90;;;;;;5095548;28;19927;-80
2021/12/23 15:17:32;;;;;;;;;;;11.20;99.90;;;;;;5095930;28;20304;-80
2021/12/23 15:19:58;;;;;;;;;;;11.20;99.90;;;;;;5095374;28;19915;-78
2021/12/23 15:22:25;;;;;;;;;;;11.10;99.90;;;;;;5077187;28;19908;-80
2021/12/23 15:25:00;;;;;;;;;;;11.10;99.90;;;;;;5095664;28;19915;-80
2021/12/23 15:27:30;;;;;;;;;;;11.10;99.90;;;;;;5095800;28;19915;-78
2021/12/23 15:30:01;;;;;;;;;;;11.20;99.90;;;;;;5095357;28;19909;-78
2021/12/23 15:32:28;;;;;;;;;;;11.20;99.90;;;;;;5095748;28;20001;-79
2021/12/23 15:35:00;;;;;;;;;;;11.10;99.90;;;;;;5095152;28;19915;-79